createdAt,value
2018-09-25T00:02:12.185Z,56.30
2018-09-25T00:04:45.564Z,56.30
2018-09-25T00:07:18.922Z,56.40
2018-09-25T00:09:52.009Z,56.40
2018-09-25T00:12:24.908Z,57.00
2018-09-25T00:14:58.124Z,56.50
2018-09-25T00:17:31.248Z,56.50
2018-09-25T00:20:04.580Z,57.10
2018-09-25T00:22:37.717Z,56.50
2018-09-25T00:25:10.986Z,56.60
2018-09-25T00:27:45.372Z,56.60
2018-09-25T00:30:18.466Z,56.80
2018-09-25T00:32:51.699Z,57.40
2018-09-25T00:35:24.918Z,56.80
2018-09-25T00:37:58.090Z,56.90
2018-09-25T00:40:31.323Z,56.90
2018-09-25T00:43:04.405Z,57.10
2018-09-25T00:45:37.638Z,57.00
2018-09-25T00:48:10.962Z,57.00
2018-09-25T00:50:44.881Z,57.10
2018-09-25T00:53:17.928Z,57.10
2018-09-25T00:55:51.258Z,57.00
2018-09-25T00:58:24.180Z,57.10
2018-09-25T01:00:57.198Z,57.10
2018-09-25T01:03:30.305Z,57.10
2018-09-25T01:06:03.200Z,57.20
2018-09-25T01:08:36.378Z,57.10
2018-09-25T01:11:09.617Z,57.10
2018-09-25T01:13:42.867Z,57.20
2018-09-25T01:16:16.062Z,57.10
2018-09-25T01:18:49.248Z,57.20
2018-09-25T01:21:22.389Z,57.10
2018-09-25T01:23:55.411Z,57.20
2018-09-25T01:26:28.479Z,57.20
2018-09-25T01:29:01.715Z,57.30
2018-09-25T01:31:34.966Z,57.20
2018-09-25T01:34:08.324Z,57.30
2018-09-25T01:36:41.631Z,57.60
2018-09-25T01:39:15.254Z,57.50
2018-09-25T01:41:48.433Z,57.40
2018-09-25T01:44:21.556Z,57.40
2018-09-25T01:46:54.631Z,57.50
2018-09-25T01:49:27.707Z,57.50
2018-09-25T01:52:00.917Z,57.70
2018-09-25T01:54:33.941Z,57.70
2018-09-25T01:57:07.239Z,57.80
2018-09-25T01:59:40.414Z,57.70
2018-09-25T02:02:13.832Z,57.80
2018-09-25T02:04:47.377Z,57.80
2018-09-25T02:07:20.616Z,57.90
2018-09-25T02:09:54.663Z,57.80
2018-09-25T02:12:27.729Z,57.90
2018-09-25T02:15:00.882Z,57.80
2018-09-25T02:17:33.906Z,57.80
2018-09-25T02:20:07.061Z,57.80
2018-09-25T02:22:40.228Z,57.80
2018-09-25T02:25:13.592Z,57.80
2018-09-25T02:27:47.229Z,57.90
2018-09-25T02:30:20.514Z,57.90
2018-09-25T02:32:53.533Z,58.00
2018-09-25T02:35:26.435Z,58.00
2018-09-25T02:37:59.510Z,58.00
2018-09-25T02:40:32.692Z,58.10
2018-09-25T02:43:08.308Z,57.90
2018-09-25T02:45:41.519Z,58.10
2018-09-25T02:48:15.306Z,58.10
2018-09-25T02:50:48.352Z,58.10
2018-09-25T02:53:21.486Z,58.20
2018-09-25T02:55:54.644Z,58.20
2018-09-25T02:58:27.860Z,58.40
2018-09-25T03:01:00.840Z,58.40
2018-09-25T03:03:33.892Z,58.90
2018-09-25T03:06:07.109Z,58.40
2018-09-25T03:08:40.080Z,58.50
2018-09-25T03:11:13.275Z,58.40
2018-09-25T03:13:46.748Z,58.30
2018-09-25T03:16:19.940Z,58.40
2018-09-25T03:18:53.027Z,58.30
2018-09-25T03:21:26.005Z,58.30
2018-09-25T03:23:59.345Z,58.30
2018-09-25T03:26:32.389Z,58.30
2018-09-25T03:29:05.519Z,58.30
2018-09-25T03:31:39.225Z,58.20
2018-09-25T03:34:12.614Z,58.30
2018-09-25T03:36:45.896Z,58.30
2018-09-25T03:39:18.946Z,58.30
2018-09-25T03:41:52.152Z,58.30
2018-09-25T03:44:25.290Z,58.40
2018-09-25T03:46:58.509Z,58.50
2018-09-25T03:49:31.764Z,58.50
2018-09-25T03:52:04.758Z,58.60
2018-09-25T03:54:37.905Z,58.60
2018-09-25T03:57:11.317Z,58.60
2018-09-25T03:59:44.610Z,58.00
2018-09-25T04:02:17.521Z,58.60
2018-09-25T04:04:51.691Z,58.60
2018-09-25T04:07:24.685Z,58.60
2018-09-25T04:09:57.741Z,58.80
2018-09-25T04:12:30.886Z,58.70
2018-09-25T04:15:04.072Z,59.30
2018-09-25T04:17:37.434Z,58.80
2018-09-25T04:20:10.440Z,58.70
2018-09-25T04:22:43.796Z,58.80
2018-09-25T04:25:17.333Z,58.80
2018-09-25T04:27:50.574Z,58.70
2018-09-25T04:30:23.651Z,58.80
2018-09-25T04:32:57.828Z,58.80
2018-09-25T04:35:32.193Z,58.90
2018-09-25T04:38:05.416Z,58.80
2018-09-25T04:40:39.722Z,58.90
2018-09-25T04:43:12.873Z,58.90
2018-09-25T04:45:45.843Z,58.90
2018-09-25T04:48:19.235Z,59.00
2018-09-25T04:50:52.236Z,59.10
2018-09-25T04:53:25.417Z,59.70
2018-09-25T04:56:05.691Z,59.10
2018-09-25T04:58:38.802Z,59.20
2018-09-25T05:01:12.126Z,59.20
2018-09-25T05:03:45.268Z,59.20
2018-09-25T05:06:18.389Z,59.20
2018-09-25T05:08:51.365Z,59.40
2018-09-25T05:11:24.508Z,59.30
2018-09-25T05:13:57.897Z,59.40
2018-09-25T05:16:32.922Z,60.00
2018-09-25T05:19:06.383Z,59.40
2018-09-25T05:21:39.645Z,59.40
2018-09-25T05:24:12.796Z,59.40
2018-09-25T05:26:45.943Z,59.40
2018-09-25T05:29:20.711Z,59.40
2018-09-25T05:31:53.708Z,59.50
2018-09-25T05:34:26.769Z,59.60
2018-09-25T05:37:00.270Z,59.60
2018-09-25T05:39:33.406Z,59.60
2018-09-25T05:42:06.641Z,59.60
2018-09-25T05:44:40.104Z,59.70
2018-09-25T05:47:13.481Z,59.70
2018-09-25T05:49:46.763Z,59.70
2018-09-25T05:52:20.059Z,59.70
2018-09-25T05:54:53.246Z,59.80
2018-09-25T05:57:26.319Z,59.80
2018-09-25T05:59:59.486Z,59.80
2018-09-25T06:02:32.376Z,59.80
2018-09-25T06:05:06.548Z,59.90
2018-09-25T06:07:39.654Z,59.90
2018-09-25T06:10:12.989Z,59.90
2018-09-25T06:12:46.418Z,59.90
2018-09-25T06:15:19.678Z,59.80
2018-09-25T06:17:52.895Z,59.90
2018-09-25T06:20:26.060Z,59.80
2018-09-25T06:22:59.270Z,59.80
2018-09-25T06:25:32.956Z,59.40
2018-09-25T06:28:06.364Z,59.10
2018-09-25T06:30:39.411Z,58.80
2018-09-25T06:33:13.194Z,58.50
2018-09-25T06:35:46.551Z,58.30
2018-09-25T06:38:19.699Z,58.00
2018-09-25T06:40:52.933Z,57.80
2018-09-25T06:43:25.957Z,57.50
2018-09-25T06:45:59.172Z,57.30
2018-09-25T06:48:32.359Z,57.10
2018-09-25T06:51:05.616Z,57.00
2018-09-25T06:53:38.802Z,56.70
2018-09-25T06:56:12.237Z,56.60
2018-09-25T06:58:46.406Z,56.40
2018-09-25T07:01:19.587Z,56.10
2018-09-25T07:03:59.214Z,56.20
2018-09-25T07:06:32.385Z,56.00
2018-09-25T07:09:05.786Z,55.90
2018-09-25T07:11:39.130Z,56.10
2018-09-25T07:14:12.315Z,55.50
2018-09-25T07:16:45.394Z,55.40
2018-09-25T07:19:18.559Z,55.90
2018-09-25T07:21:51.679Z,55.10
2018-09-25T07:24:24.983Z,55.00
2018-09-25T07:26:57.999Z,55.00
2018-09-25T07:29:31.172Z,54.90
2018-09-25T07:32:04.291Z,54.80
2018-09-25T07:34:37.667Z,54.70
2018-09-25T07:37:11.097Z,54.60
2018-09-25T07:39:44.392Z,54.60
2018-09-25T07:42:17.623Z,54.60
2018-09-25T07:44:52.337Z,54.50
2018-09-25T07:47:25.642Z,54.50
2018-09-25T07:49:58.717Z,54.30
2018-09-25T07:52:33.945Z,54.40
2018-09-25T07:55:07.162Z,54.40
2018-09-25T07:57:40.201Z,54.10
2018-09-25T08:00:14.352Z,54.20
2018-09-25T08:02:47.528Z,54.20
2018-09-25T08:05:20.680Z,54.20
2018-09-25T08:07:53.815Z,54.10
2018-09-25T08:10:26.990Z,54.70
2018-09-25T08:13:00.227Z,54.10
2018-09-25T08:15:33.421Z,54.20
2018-09-25T08:18:07.167Z,54.10
2018-09-25T08:20:40.495Z,54.00
2018-09-25T08:23:13.973Z,54.00
2018-09-25T08:25:47.067Z,53.90
2018-09-25T08:28:20.229Z,54.00
2018-09-25T08:30:53.273Z,54.10
2018-09-25T08:33:26.403Z,54.00
2018-09-25T08:35:59.609Z,53.90
2018-09-25T08:38:32.649Z,53.80
2018-09-25T08:41:05.795Z,53.90
2018-09-25T08:43:38.875Z,53.90
2018-09-25T08:46:12.931Z,53.80
2018-09-25T08:48:46.124Z,53.70
2018-09-25T08:51:19.518Z,53.70
2018-09-25T08:53:52.658Z,53.60
2018-09-25T08:56:25.861Z,53.70
2018-09-25T08:58:59.000Z,53.60
2018-09-25T09:01:32.164Z,53.60
2018-09-25T09:04:05.391Z,53.70
2018-09-25T09:06:38.648Z,53.60
2018-09-25T09:09:13.488Z,53.50
2018-09-25T09:11:48.178Z,53.50
2018-09-25T09:14:21.184Z,53.50
2018-09-25T09:16:54.279Z,53.60
2018-09-25T09:19:27.517Z,53.70
2018-09-25T09:22:00.597Z,53.60
2018-09-25T09:24:33.752Z,53.60
2018-09-25T09:27:07.528Z,53.00
2018-09-25T09:29:40.541Z,53.70
2018-09-25T09:32:13.847Z,53.70
2018-09-25T09:34:47.274Z,53.70
2018-09-25T09:37:20.359Z,53.70
2018-09-25T09:39:53.500Z,53.80
2018-09-25T09:42:26.430Z,53.80
2018-09-25T09:44:59.519Z,53.80
2018-09-25T09:47:32.661Z,53.90
2018-09-25T09:50:06.259Z,53.80
2018-09-25T09:52:39.453Z,53.80
2018-09-25T09:55:12.808Z,53.90
2018-09-25T09:57:46.708Z,53.90
2018-09-25T10:00:19.972Z,54.00
2018-09-25T10:02:53.091Z,54.00
2018-09-25T10:05:26.188Z,54.10
2018-09-25T10:08:00.445Z,54.90
2018-09-25T10:10:33.613Z,54.30
2018-09-25T10:13:07.081Z,54.40
2018-09-25T10:15:40.524Z,54.60
2018-09-25T10:18:13.865Z,54.70
2018-09-25T10:20:47.217Z,54.60
2018-09-25T10:23:20.396Z,54.70
2018-09-25T10:25:53.824Z,54.80
2018-09-25T10:28:27.232Z,54.70
2018-09-25T10:31:00.314Z,54.80
2018-09-25T10:33:33.429Z,54.90
2018-09-25T10:36:07.650Z,55.10
2018-09-25T10:38:40.796Z,55.10
2018-09-25T10:41:14.098Z,55.30
2018-09-25T10:43:47.526Z,55.30
2018-09-25T10:46:20.864Z,55.50
2018-09-25T10:48:54.132Z,55.50
2018-09-25T10:51:27.252Z,55.60
2018-09-25T10:54:00.451Z,55.00
2018-09-25T10:56:33.582Z,55.70
2018-09-25T10:59:06.725Z,55.80
2018-09-25T11:01:39.889Z,55.90
2018-09-25T11:04:13.113Z,55.90
2018-09-25T11:06:46.097Z,56.00
2018-09-25T11:09:19.254Z,56.00
2018-09-25T11:11:52.397Z,56.00
2018-09-25T11:14:25.547Z,56.20
2018-09-25T11:16:58.633Z,56.20
2018-09-25T11:19:31.699Z,56.20
2018-09-25T11:22:04.826Z,56.10
2018-09-25T11:24:38.001Z,56.40
2018-09-25T11:27:11.107Z,56.10
2018-09-25T11:29:44.407Z,56.30
2018-09-25T11:32:17.762Z,56.40
2018-09-25T11:34:51.213Z,56.50
2018-09-25T11:37:24.504Z,56.50
2018-09-25T11:39:59.529Z,56.60
2018-09-25T11:42:32.497Z,56.60
2018-09-25T11:45:05.815Z,56.70
2018-09-25T11:47:38.831Z,56.70
2018-09-25T11:50:12.023Z,57.00
2018-09-25T11:52:45.059Z,56.80
2018-09-25T11:55:18.246Z,56.80
2018-09-25T11:57:51.334Z,56.80
2018-09-25T12:00:24.550Z,57.40
2018-09-25T12:02:57.774Z,56.80
2018-09-25T12:05:32.321Z,56.80
2018-09-25T12:08:06.626Z,56.90
2018-09-25T12:10:39.855Z,56.80
2018-09-25T12:13:13.382Z,57.00
2018-09-25T12:15:46.399Z,57.00
2018-09-25T12:18:19.566Z,56.90
2018-09-25T12:20:52.690Z,56.80
2018-09-25T12:23:25.895Z,56.80
2018-09-25T12:25:58.815Z,56.90
2018-09-25T12:28:32.153Z,56.90
2018-09-25T12:31:05.293Z,56.90
2018-09-25T12:33:38.373Z,56.90
2018-09-25T12:36:12.647Z,57.00
2018-09-25T12:38:46.961Z,56.80
2018-09-25T12:41:20.168Z,57.00
2018-09-25T12:43:53.641Z,57.00
2018-09-25T12:46:26.624Z,57.00
2018-09-25T12:48:59.746Z,56.90
2018-09-25T12:51:33.269Z,57.00
2018-09-25T12:54:06.309Z,57.00
2018-09-25T12:56:39.777Z,57.00
2018-09-25T12:59:12.847Z,56.90
2018-09-25T13:01:45.971Z,56.90
2018-09-25T13:04:19.148Z,56.90
2018-09-25T13:06:52.213Z,56.90
2018-09-25T13:09:25.229Z,56.40
2018-09-25T13:11:58.361Z,56.90
2018-09-25T13:14:31.592Z,57.00
2018-09-25T13:17:04.742Z,57.00
2018-09-25T13:19:38.943Z,57.00
2018-09-25T13:22:12.364Z,56.90
2018-09-25T13:24:45.505Z,56.90
2018-09-25T13:27:18.914Z,56.80
2018-09-25T13:29:52.079Z,56.50
2018-09-25T13:32:25.175Z,56.70
2018-09-25T13:34:58.212Z,56.80
2018-09-25T13:37:31.242Z,56.80
2018-09-25T13:40:04.206Z,57.30
2018-09-25T13:42:37.383Z,56.80
2018-09-25T13:45:10.842Z,56.80
2018-09-25T13:47:43.904Z,56.90
2018-09-25T13:50:17.462Z,56.90
2018-09-25T13:52:50.674Z,56.90
2018-09-25T13:55:23.750Z,56.90
2018-09-25T13:57:56.952Z,57.00
2018-09-25T14:00:30.174Z,57.20
2018-09-25T14:03:03.378Z,57.10
2018-09-25T14:05:36.529Z,57.10
2018-09-25T14:08:10.028Z,57.20
2018-09-25T14:10:43.854Z,57.20
2018-09-25T14:13:17.046Z,57.20
2018-09-25T14:15:50.415Z,57.30
2018-09-25T14:18:23.512Z,57.20
2018-09-25T14:20:56.520Z,57.30
2018-09-25T14:23:29.521Z,57.30
2018-09-25T14:26:02.613Z,57.30
2018-09-25T14:28:35.888Z,57.30
2018-09-25T14:31:09.348Z,57.40
2018-09-25T14:33:42.780Z,57.40
2018-09-25T14:36:15.841Z,57.30
2018-09-25T14:38:49.137Z,57.40
2018-09-25T14:41:22.294Z,57.30
2018-09-25T14:43:55.402Z,57.40
2018-09-25T14:46:28.430Z,57.30
2018-09-25T14:49:01.576Z,57.30
2018-09-25T14:51:34.687Z,57.60
2018-09-25T14:54:08.097Z,57.30
2018-09-25T14:56:41.246Z,57.30
2018-09-25T14:59:14.407Z,57.30
2018-09-25T15:01:47.579Z,57.40
2018-09-25T15:04:20.719Z,57.30
2018-09-25T15:06:53.848Z,57.30
2018-09-25T15:09:29.106Z,57.40
2018-09-25T15:12:02.378Z,57.30
2018-09-25T15:14:35.696Z,57.30
2018-09-25T15:17:09.035Z,57.30
2018-09-25T15:19:42.317Z,57.30
2018-09-25T15:22:15.888Z,57.30
2018-09-25T15:24:48.853Z,57.30
2018-09-25T15:27:22.019Z,57.40
2018-09-25T15:29:54.982Z,57.40
2018-09-25T15:32:28.070Z,57.30
2018-09-25T15:35:01.195Z,57.30
2018-09-25T15:37:34.405Z,57.40
2018-09-25T15:40:07.756Z,56.70
2018-09-25T15:42:41.070Z,56.80
2018-09-25T15:45:14.673Z,55.90
2018-09-25T15:47:48.428Z,55.40
2018-09-25T15:50:21.639Z,55.30
2018-09-25T15:52:54.690Z,55.20
2018-09-25T15:55:27.804Z,55.10
2018-09-25T15:58:00.774Z,54.90
2018-09-25T16:00:33.900Z,54.90
2018-09-25T16:03:07.087Z,54.70
2018-09-25T16:05:40.287Z,54.70
2018-09-25T16:08:14.257Z,54.60
2018-09-25T16:10:47.642Z,54.40
2018-09-25T16:13:20.730Z,54.30
2018-09-25T16:15:53.953Z,54.30
2018-09-25T16:18:27.094Z,54.20
2018-09-25T16:21:00.196Z,54.00
2018-09-25T16:23:33.329Z,54.00
2018-09-25T16:26:06.469Z,54.00
2018-09-25T16:28:39.707Z,53.90
2018-09-25T16:31:12.913Z,53.80
2018-09-25T16:33:46.048Z,53.90
2018-09-25T16:36:19.227Z,53.80
2018-09-25T16:38:52.519Z,53.70
2018-09-25T16:41:29.103Z,53.70
2018-09-25T16:44:02.231Z,54.30
2018-09-25T16:46:35.963Z,52.80
2018-09-25T16:49:09.344Z,50.70
2018-09-25T16:51:42.644Z,51.20
2018-09-25T16:54:15.815Z,50.00
2018-09-25T16:56:49.008Z,49.10
2018-09-25T16:59:22.106Z,48.50
2018-09-25T17:01:55.160Z,47.60
2018-09-25T17:04:28.178Z,46.50
2018-09-25T17:07:01.242Z,45.90
2018-09-25T17:09:34.436Z,45.40
2018-09-25T17:12:08.583Z,44.80
2018-09-25T17:14:41.604Z,44.00
2018-09-25T17:17:14.652Z,44.00
2018-09-25T17:19:47.820Z,43.90
2018-09-25T17:22:20.914Z,42.90
2018-09-25T17:24:55.157Z,43.10
2018-09-25T17:27:28.272Z,43.30
2018-09-25T17:30:01.618Z,42.40
2018-09-25T17:32:35.946Z,41.60
2018-09-25T17:35:09.127Z,41.70
2018-09-25T17:37:42.308Z,41.10
2018-09-25T17:40:16.319Z,40.90
2018-09-25T17:42:49.396Z,41.00
2018-09-25T17:45:22.434Z,40.60
2018-09-25T17:47:55.555Z,42.40
2018-09-25T17:50:28.592Z,44.60
2018-09-25T17:53:01.741Z,44.50
2018-09-25T17:55:35.946Z,44.50
2018-09-25T17:58:09.196Z,44.40
2018-09-25T18:00:42.212Z,44.50
2018-09-25T18:03:15.562Z,44.50
2018-09-25T18:05:48.590Z,44.50
2018-09-25T18:08:22.784Z,44.70
2018-09-25T18:11:04.570Z,44.90
2018-09-25T18:13:37.692Z,44.80
2018-09-25T18:16:11.008Z,44.80
2018-09-25T18:18:44.068Z,44.90
2018-09-25T18:21:17.121Z,45.20
2018-09-25T18:23:50.217Z,45.00
2018-09-25T18:26:23.371Z,45.00
2018-09-25T18:29:02.183Z,45.40
2018-09-25T18:31:35.325Z,45.50
2018-09-25T18:34:08.594Z,45.20
2018-09-25T18:36:41.716Z,45.70
2018-09-25T18:39:14.850Z,45.50
2018-09-25T18:41:47.920Z,45.90
2018-09-25T18:44:21.046Z,46.40
2018-09-25T18:46:54.170Z,46.70
2018-09-25T18:49:27.315Z,46.90
2018-09-25T18:52:02.396Z,47.00
2018-09-25T18:54:35.763Z,47.20
2018-09-25T18:57:09.149Z,47.10
2018-09-25T18:59:42.373Z,47.10
2018-09-25T19:02:15.362Z,47.20
2018-09-25T19:04:48.576Z,47.10
2018-09-25T19:07:21.729Z,47.50
2018-09-25T19:09:54.916Z,47.50
2018-09-25T19:12:28.532Z,47.80
2018-09-25T19:15:03.975Z,47.80
2018-09-25T19:17:37.055Z,47.90
2018-09-25T19:20:11.506Z,47.80
2018-09-25T19:22:45.000Z,48.50
2018-09-25T19:25:18.172Z,48.60
2018-09-25T19:27:51.429Z,48.60
2018-09-25T19:30:24.621Z,48.70
2018-09-25T19:32:57.800Z,48.80
2018-09-25T19:35:31.312Z,49.00
2018-09-25T19:38:04.661Z,49.30
2018-09-25T19:40:38.427Z,49.40
2018-09-25T19:43:11.984Z,49.60
2018-09-25T19:45:45.103Z,49.80
2018-09-25T19:48:18.192Z,50.00
2018-09-25T19:50:51.336Z,50.00
2018-09-25T19:53:27.916Z,49.80
2018-09-25T19:56:01.160Z,50.30
2018-09-25T19:58:34.922Z,50.40
2018-09-25T20:01:08.246Z,51.10
2018-09-25T20:03:41.680Z,50.60
2018-09-25T20:06:14.611Z,50.80
2018-09-25T20:08:48.638Z,51.00
2018-09-25T20:11:21.692Z,51.20
2018-09-25T20:13:54.768Z,51.40
2018-09-25T20:16:28.833Z,51.60
2018-09-25T20:19:02.323Z,51.80
2018-09-25T20:21:35.565Z,51.90
2018-09-25T20:24:08.913Z,52.00
2018-09-25T20:26:42.299Z,52.70
2018-09-25T20:29:15.365Z,52.20
2018-09-25T20:31:48.544Z,52.30
2018-09-25T20:34:21.497Z,52.50
2018-09-25T20:36:54.556Z,52.60
2018-09-25T20:39:27.696Z,52.70
2018-09-25T20:42:01.288Z,52.70
2018-09-25T20:44:40.450Z,52.90
2018-09-25T20:47:13.632Z,53.00
2018-09-25T20:49:46.713Z,53.20
2018-09-25T20:52:19.836Z,53.30
2018-09-25T20:54:53.008Z,53.40
2018-09-25T20:57:26.129Z,53.60
2018-09-25T20:59:59.271Z,53.70
2018-09-25T21:02:32.386Z,53.80
2018-09-25T21:05:05.389Z,53.90
2018-09-25T21:07:38.754Z,54.50
2018-09-25T21:10:12.000Z,54.20
2018-09-25T21:12:45.064Z,54.40
2018-09-25T21:15:18.235Z,54.40
2018-09-25T21:17:51.352Z,54.60
2018-09-25T21:20:24.716Z,54.70
2018-09-25T21:22:57.882Z,54.80
2018-09-25T21:25:31.112Z,54.90
2018-09-25T21:28:05.412Z,55.00
2018-09-25T21:30:38.804Z,55.00
2018-09-25T21:33:11.992Z,55.10
2018-09-25T21:35:45.031Z,55.20
2018-09-25T21:38:19.459Z,55.30
2018-09-25T21:40:53.297Z,55.40
2018-09-25T21:43:26.498Z,55.50
2018-09-25T21:45:59.428Z,55.60
2018-09-25T21:48:34.176Z,55.70
2018-09-25T21:51:07.548Z,55.70
2018-09-25T21:53:40.630Z,55.70
2018-09-25T21:56:13.765Z,55.80
2018-09-25T21:58:46.773Z,55.80
2018-09-25T22:01:19.863Z,55.90
2018-09-25T22:03:53.531Z,55.90
2018-09-25T22:06:26.691Z,56.00
2018-09-25T22:08:59.837Z,56.00
2018-09-25T22:11:34.873Z,56.00
2018-09-25T22:14:08.048Z,56.10
2018-09-25T22:16:42.173Z,56.40
2018-09-25T22:19:15.240Z,56.40
2018-09-25T22:21:48.630Z,56.30
2018-09-25T22:24:21.585Z,56.40
2018-09-25T22:26:54.556Z,56.50
2018-09-25T22:29:27.669Z,56.70
2018-09-25T22:32:00.944Z,56.60
2018-09-25T22:34:34.165Z,56.70
2018-09-25T22:37:07.555Z,56.80
2018-09-25T22:39:40.964Z,56.90
2018-09-25T22:42:14.244Z,57.00
2018-09-25T22:44:47.240Z,57.00
2018-09-25T22:47:21.264Z,57.00
2018-09-25T22:49:54.365Z,57.20
2018-09-25T22:52:27.567Z,57.10
2018-09-25T22:55:01.141Z,57.30
2018-09-25T22:57:34.306Z,57.30
2018-09-25T23:00:08.204Z,57.30
2018-09-25T23:02:41.586Z,57.40
2018-09-25T23:05:15.052Z,57.50
2018-09-25T23:07:48.144Z,57.50
2018-09-25T23:10:21.171Z,57.60
2018-09-25T23:12:54.313Z,57.60
2018-09-25T23:15:27.459Z,57.70
2018-09-25T23:18:00.816Z,57.70
2018-09-25T23:20:33.988Z,57.70
2018-09-25T23:23:08.110Z,57.70
2018-09-25T23:25:41.300Z,57.80
2018-09-25T23:28:14.516Z,57.80
2018-09-25T23:30:47.572Z,57.90
2018-09-25T23:33:31.818Z,57.90
2018-09-25T23:36:17.753Z,58.00
2018-09-25T23:38:50.787Z,58.00
2018-09-25T23:41:27.084Z,58.10
2018-09-25T23:44:00.168Z,58.20
2018-09-25T23:46:41.071Z,58.20
2018-09-25T23:49:17.153Z,58.20
2018-09-25T23:52:47.822Z,58.30
2018-09-25T23:55:52.199Z,58.40
2018-09-25T23:58:38.937Z,58.30
